Aérodrome :







RETROUVEZ-NOUS SUR...

 
LOGIN :

S'inscrire | Disclaimer

   EN    FR    IT 

 









Légende :    VFR   VFR Marginal   IFR   IFR Intensif   IFR Très Intensif
Visi : 
Plafond : 
>= 8 km
>= 3000ft
5 à 8 km
1000 à 3000 ft
1500m à 5 km
500 à 1000 ft
800 à 1500m
200 à 500 ft
< 800m
< 200 ft
Symboles :   Orages  Brouillard  Fortes neiges  Fortes précipitations  Vent > 20 kt






- Altitude de l'aérodrome : 75 ft
- Code IATA : YXP


CYXP - Pangnirtung

DERNIER METAR :
  • 121900Z 25008KT 15SM BKN038 M12/M16 A2947 RMK SC7 SLP983

METARs EXPIRÉS :
  • 121800Z VRB02KT 15SM FEW035 BKN042 M13/M17 A2947 RMK SC1SC7 SC TR SLP982
  • 121700Z 14002KT 15SM OVC044 M13/M16 A2946 RMK SC8 SLP980

TAF TAF CYXP
Valide du 12 à 19h jusqu'au 12 à 23h UTC


121838Z 1219/1223 VRB03KT P6SM FEW020 BKN040
TEMPO 1219/1223 P6SM -SN BKN020 RMK NXT FCST WILL BE ISSUED AT 131345Z



MET'MAP, la Météo Aéronautique d'un coup d'oeil ! - Copyright ORBIFLY Décembre 2007 - Disclaimer

ORBIFLY MET'MAP TEAM :

Programmation & Développement : Alexandra Zaïnal
Sur une idée originale de : Baudouin d'Aumeries
Assistance à la programmation : Marc-Olivier Méhu
Soutien technique & logistique : Manuel Goepfert

Contact : metmap@orbifly.com




SOURCES & CREDITS :

   NOAA